createdAt,value
2019-03-28T00:00:04.800Z,7.50
2019-03-28T00:02:32.800Z,7.97
2019-03-28T00:05:00.864Z,8.73
2019-03-28T00:07:28.897Z,7.73
2019-03-28T00:09:56.930Z,7.90
2019-03-28T00:12:24.929Z,8.20
2019-03-28T00:14:53.010Z,7.50
2019-03-28T00:17:21.127Z,7.67
2019-03-28T00:19:49.160Z,7.70
2019-03-28T00:22:28.386Z,7.60
2019-03-28T00:25:01.246Z,8.10
2019-03-28T00:27:29.242Z,7.43
2019-03-28T00:29:57.247Z,8.17
2019-03-28T00:32:25.285Z,7.57
2019-03-28T00:34:53.350Z,7.77
2019-03-28T00:37:40.589Z,7.73
2019-03-28T00:40:08.682Z,8.43
2019-03-28T00:42:38.475Z,7.87
2019-03-28T00:45:07.763Z,7.60
2019-03-28T00:47:36.182Z,7.43
2019-03-28T00:50:04.472Z,7.87
2019-03-28T00:52:32.481Z,7.83
2019-03-28T00:55:00.626Z,8.27
2019-03-28T00:57:28.659Z,7.50
2019-03-28T00:59:57.108Z,7.77
2019-03-28T01:02:25.090Z,6.93
2019-03-28T01:04:53.095Z,7.23
2019-03-28T01:07:21.249Z,7.07
2019-03-28T01:09:50.714Z,7.23
2019-03-28T01:12:18.728Z,6.90
2019-03-28T01:14:46.718Z,7.43
2019-03-28T01:17:14.756Z,7.53
2019-03-28T01:19:42.767Z,6.97
2019-03-28T01:22:10.804Z,7.57
2019-03-28T01:24:38.842Z,8.20
2019-03-28T01:27:06.847Z,7.70
2019-03-28T01:29:34.898Z,7.33
2019-03-28T01:32:02.894Z,7.50
2019-03-28T01:34:30.938Z,7.87
2019-03-28T01:36:59.020Z,7.73
2019-03-28T01:39:27.014Z,7.57
2019-03-28T01:41:55.011Z,6.53
2019-03-28T01:44:23.058Z,7.20
2019-03-28T01:46:51.100Z,6.87
2019-03-28T01:49:19.125Z,7.50
2019-03-28T01:51:47.124Z,6.83
2019-03-28T01:54:15.158Z,7.60
2019-03-28T01:56:43.166Z,7.17
2019-03-28T01:59:11.223Z,7.87
2019-03-28T02:01:39.259Z,8.53
2019-03-28T02:04:07.586Z,7.00
2019-03-28T02:06:35.627Z,7.87
2019-03-28T02:09:05.065Z,7.73
2019-03-28T02:11:33.075Z,6.97
2019-03-28T02:14:01.086Z,7.43
2019-03-28T02:16:29.093Z,8.03
2019-03-28T02:18:57.123Z,8.00
2019-03-28T02:21:25.159Z,8.57
2019-03-28T02:23:53.211Z,8.10
2019-03-28T02:26:21.205Z,7.23
2019-03-28T02:28:49.245Z,7.63
2019-03-28T02:31:17.288Z,7.27
2019-03-28T02:33:45.335Z,7.50
2019-03-28T02:36:13.350Z,6.70
2019-03-28T02:38:41.363Z,7.73
2019-03-28T02:41:09.892Z,7.93
2019-03-28T02:43:37.923Z,8.03
2019-03-28T02:46:05.962Z,8.90
2019-03-28T02:48:34.040Z,7.50
2019-03-28T02:51:02.079Z,7.50
2019-03-28T02:53:30.083Z,6.70
2019-03-28T02:55:58.147Z,8.03
2019-03-28T02:58:26.194Z,8.07
2019-03-28T03:00:54.239Z,7.00
2019-03-28T03:03:22.218Z,7.17
2019-03-28T03:05:50.315Z,7.97
2019-03-28T03:08:18.367Z,7.73
2019-03-28T03:10:46.382Z,7.37
2019-03-28T03:13:14.437Z,7.60
2019-03-28T03:15:42.500Z,6.93
2019-03-28T03:18:10.519Z,8.13
2019-03-28T03:20:38.557Z,7.83
2019-03-28T03:23:06.617Z,8.57
2019-03-28T03:25:34.973Z,8.30
2019-03-28T03:28:03.027Z,8.37
2019-03-28T03:33:14.180Z,8.80
2019-03-28T03:35:42.236Z,8.50
2019-03-28T03:38:10.252Z,7.90
2019-03-28T03:40:38.289Z,8.33
2019-03-28T03:43:06.305Z,9.23
2019-03-28T03:45:35.584Z,8.67
2019-03-28T03:48:04.017Z,8.30
2019-03-28T03:50:31.991Z,9.00
2019-03-28T03:52:59.996Z,9.13
2019-03-28T03:55:28.020Z,8.00
2019-03-28T03:57:56.080Z,8.60
2019-03-28T04:00:34.713Z,8.93
2019-03-28T04:03:03.161Z,8.90
2019-03-28T04:05:31.467Z,7.97
2019-03-28T04:08:00.096Z,8.03
2019-03-28T04:10:28.344Z,9.13
2019-03-28T04:12:56.359Z,9.60
2019-03-28T04:15:24.358Z,8.07
2019-03-28T04:17:52.363Z,9.23
2019-03-28T04:20:20.426Z,9.17
2019-03-28T04:22:48.444Z,8.73
2019-03-28T04:25:16.462Z,8.27
2019-03-28T04:27:44.443Z,8.00
2019-03-28T04:30:12.794Z,9.07
2019-03-28T04:32:40.810Z,9.00
2019-03-28T04:35:08.839Z,8.17
2019-03-28T04:37:36.886Z,9.00
2019-03-28T04:40:05.660Z,8.20
2019-03-28T04:42:33.667Z,8.57
2019-03-28T04:45:05.302Z,8.47
2019-03-28T04:47:31.963Z,8.97
2019-03-28T04:49:59.986Z,8.50
2019-03-28T04:52:28.016Z,8.97
2019-03-28T04:54:56.061Z,9.17
2019-03-28T04:57:24.082Z,8.53
2019-03-28T04:59:52.069Z,9.53
2019-03-28T05:02:20.135Z,8.90
2019-03-28T05:04:48.112Z,9.10
2019-03-28T05:07:16.421Z,9.27
2019-03-28T05:09:44.524Z,8.67
2019-03-28T05:12:31.739Z,8.90
2019-03-28T05:14:59.745Z,9.07
2019-03-28T05:17:27.764Z,8.53
2019-03-28T05:19:55.895Z,8.73
2019-03-28T05:22:23.911Z,9.30
2019-03-28T05:24:51.916Z,9.93
2019-03-28T05:27:19.967Z,8.93
2019-03-28T05:29:49.338Z,10.03
2019-03-28T05:32:17.367Z,9.63
2019-03-28T05:34:45.395Z,9.30
2019-03-28T05:37:13.345Z,9.63
2019-03-28T05:39:41.627Z,8.93
2019-03-28T05:42:09.617Z,9.37
2019-03-28T05:44:37.645Z,9.07
2019-03-28T05:47:06.033Z,9.93
2019-03-28T05:49:34.025Z,8.90
2019-03-28T05:52:02.197Z,9.63
2019-03-28T05:54:30.498Z,9.07
2019-03-28T05:56:58.560Z,9.40
2019-03-28T05:59:26.887Z,9.33
2019-03-28T06:01:54.943Z,8.40
2019-03-28T06:04:23.067Z,8.87
2019-03-28T06:06:51.169Z,8.67
2019-03-28T06:09:19.340Z,9.90
2019-03-28T06:11:47.468Z,8.93
2019-03-28T06:14:15.455Z,8.80
2019-03-28T06:16:43.668Z,8.97
2019-03-28T06:19:12.355Z,9.03
2019-03-28T06:21:40.418Z,8.70
2019-03-28T06:24:08.435Z,9.57
2019-03-28T06:26:36.392Z,9.50
2019-03-28T06:29:04.383Z,9.20
2019-03-28T06:31:32.687Z,9.57
2019-03-28T06:34:00.709Z,9.70
2019-03-28T06:36:28.670Z,9.30
2019-03-28T06:38:56.787Z,9.67
2019-03-28T06:41:24.813Z,9.60
2019-03-28T06:43:52.866Z,9.00
2019-03-28T06:46:20.877Z,9.47
2019-03-28T06:48:48.855Z,9.63
2019-03-28T06:51:17.356Z,9.50
2019-03-28T06:53:45.406Z,9.83
2019-03-28T06:56:13.354Z,9.43
2019-03-28T06:58:41.394Z,9.80
2019-03-28T07:01:09.418Z,9.87
2019-03-28T07:03:38.409Z,10.27
2019-03-28T07:06:07.240Z,9.20
2019-03-28T07:08:35.997Z,9.67
2019-03-28T07:11:03.991Z,10.00
2019-03-28T07:13:32.247Z,9.93
2019-03-28T07:16:00.219Z,10.83
2019-03-28T07:18:28.218Z,10.37
2019-03-28T07:20:56.220Z,10.87
2019-03-28T07:23:24.535Z,10.60
2019-03-28T07:25:52.573Z,10.47
2019-03-28T07:28:20.615Z,11.20
2019-03-28T07:30:48.595Z,10.43
2019-03-28T07:33:16.599Z,10.17
2019-03-28T07:35:44.610Z,10.60
2019-03-28T07:38:13.459Z,9.87
2019-03-28T07:40:41.454Z,11.00
2019-03-28T07:43:09.503Z,11.60
2019-03-28T07:45:37.517Z,10.13
2019-03-28T07:48:05.489Z,11.77
2019-03-28T07:50:33.675Z,10.57
2019-03-28T07:53:01.719Z,11.60
2019-03-28T07:55:29.751Z,11.63
2019-03-28T07:57:57.727Z,11.80
2019-03-28T08:00:25.751Z,10.63
2019-03-28T08:02:54.606Z,12.63
2019-03-28T08:05:22.847Z,12.25
2019-03-28T08:07:50.829Z,11.68
2019-03-28T08:10:18.853Z,11.38
2019-03-28T08:12:46.870Z,11.12
2019-03-28T08:15:15.761Z,12.75
2019-03-28T08:17:43.776Z,11.73
2019-03-28T08:20:12.285Z,11.10
2019-03-28T08:22:40.284Z,11.45
2019-03-28T08:25:11.740Z,11.22
2019-03-28T08:27:38.589Z,11.48
2019-03-28T08:30:18.400Z,10.65
2019-03-28T08:32:39.787Z,10.75
2019-03-28T08:35:07.653Z,12.35
2019-03-28T08:37:54.924Z,12.60
2019-03-28T08:40:40.167Z,13.00
2019-03-28T08:43:08.222Z,14.33
2019-03-28T08:45:36.211Z,14.07
2019-03-28T08:48:04.334Z,14.55
2019-03-28T08:50:32.337Z,14.15
2019-03-28T08:53:00.339Z,13.68
2019-03-28T08:55:28.655Z,12.85
2019-03-28T08:58:15.942Z,14.53
2019-03-28T09:00:52.135Z,14.18
2019-03-28T09:03:13.731Z,13.58
2019-03-28T09:05:41.702Z,13.68
2019-03-28T09:08:09.689Z,13.78
2019-03-28T09:10:37.682Z,12.82
2019-03-28T09:13:05.659Z,13.53
2019-03-28T09:15:43.676Z,12.88
2019-03-28T09:18:03.637Z,13.60
2019-03-28T09:20:31.664Z,11.83
2019-03-28T09:22:59.696Z,12.37
2019-03-28T09:25:27.719Z,12.10
2019-03-28T09:27:56.189Z,12.35
2019-03-28T09:30:48.916Z,12.53
2019-03-28T09:33:13.446Z,12.10
2019-03-28T09:35:41.639Z,12.18
2019-03-28T09:38:09.801Z,12.43
2019-03-28T09:40:37.858Z,12.00
2019-03-28T09:43:05.943Z,12.40
2019-03-28T09:45:33.865Z,13.05
2019-03-28T09:48:01.977Z,13.55
2019-03-28T09:50:29.986Z,12.43
2019-03-28T09:52:57.975Z,13.48
2019-03-28T09:55:26.023Z,12.60
2019-03-28T09:57:54.022Z,11.63
2019-03-28T10:00:22.256Z,12.58
2019-03-28T10:02:50.259Z,10.98
2019-03-28T10:05:18.267Z,11.45
2019-03-28T10:07:46.281Z,10.25
2019-03-28T10:10:14.480Z,11.05
2019-03-28T10:12:44.124Z,8.98
2019-03-28T10:15:12.298Z,9.00
2019-03-28T10:17:42.430Z,9.23
2019-03-28T10:20:10.259Z,9.55
2019-03-28T10:22:38.323Z,8.53
2019-03-28T10:25:06.490Z,9.33
2019-03-28T10:27:34.479Z,10.10
2019-03-28T10:30:03.043Z,10.10
2019-03-28T10:32:31.227Z,9.43
2019-03-28T10:34:59.229Z,10.50
2019-03-28T10:37:27.282Z,9.25
2019-03-28T10:39:55.340Z,9.85
2019-03-28T10:42:23.353Z,9.65
2019-03-28T10:44:51.427Z,9.65
2019-03-28T10:47:20.058Z,9.08
2019-03-28T10:49:48.126Z,9.20
2019-03-28T10:52:16.195Z,9.33
2019-03-28T10:54:44.211Z,9.50
2019-03-28T10:57:15.529Z,9.30
2019-03-28T10:59:42.074Z,10.18
2019-03-28T11:02:10.074Z,9.60
2019-03-28T11:04:38.140Z,10.25
2019-03-28T11:07:06.190Z,10.05
2019-03-28T11:09:34.654Z,9.43
2019-03-28T11:12:02.988Z,8.88
2019-03-28T11:14:31.004Z,7.90
2019-03-28T11:16:58.999Z,7.25
2019-03-28T11:19:27.079Z,7.50
2019-03-28T11:21:55.149Z,7.22
2019-03-28T11:24:23.153Z,7.30
2019-03-28T11:26:51.261Z,9.05
2019-03-28T11:29:20.114Z,8.23
2019-03-28T11:31:52.062Z,9.03
2019-03-28T11:34:18.042Z,8.53
2019-03-28T11:36:46.070Z,8.78
2019-03-28T11:39:14.131Z,8.43
2019-03-28T11:41:42.200Z,7.60
2019-03-28T11:44:10.295Z,7.17
2019-03-28T11:46:38.342Z,8.18
2019-03-28T11:49:06.560Z,7.33
2019-03-28T11:51:36.200Z,8.95
2019-03-28T11:54:04.883Z,8.73
2019-03-28T11:56:32.954Z,8.28
2019-03-28T11:59:04.206Z,8.63
2019-03-28T12:01:30.925Z,9.25
2019-03-28T12:03:58.961Z,9.08
2019-03-28T12:06:27.312Z,9.38
2019-03-28T12:08:56.003Z,8.78
2019-03-28T12:11:25.024Z,8.45
2019-03-28T12:13:53.446Z,9.20
2019-03-28T12:16:21.993Z,8.88
2019-03-28T12:18:50.404Z,9.33
2019-03-28T12:21:18.982Z,8.45
2019-03-28T12:23:47.688Z,8.23
2019-03-28T12:26:16.576Z,7.78
2019-03-28T12:28:44.802Z,8.23
2019-03-28T12:31:14.208Z,8.70
2019-03-28T12:33:42.252Z,8.80
2019-03-28T12:36:10.328Z,8.10
2019-03-28T12:38:38.711Z,8.30
2019-03-28T12:41:06.798Z,8.98
2019-03-28T12:43:34.936Z,7.62
2019-03-28T12:46:03.075Z,8.13
2019-03-28T12:48:31.239Z,8.13
2019-03-28T12:51:00.533Z,7.92
2019-03-28T12:53:28.851Z,7.50
2019-03-28T12:55:56.922Z,6.97
2019-03-28T12:58:25.012Z,6.87
2019-03-28T13:00:53.513Z,7.12
2019-03-28T13:03:21.545Z,6.53
2019-03-28T13:05:49.598Z,6.08
2019-03-28T13:08:17.961Z,6.17
2019-03-28T13:10:46.036Z,5.85
2019-03-28T13:13:14.172Z,5.65
2019-03-28T13:15:42.238Z,6.05
2019-03-28T13:18:10.275Z,5.90
2019-03-28T13:20:39.043Z,6.60
2019-03-28T13:23:07.139Z,6.22
2019-03-28T13:25:35.646Z,7.03
2019-03-28T13:28:04.190Z,6.50
2019-03-28T13:30:32.306Z,6.78
2019-03-28T13:33:00.426Z,6.28
2019-03-28T13:35:28.883Z,6.37
2019-03-28T13:37:57.300Z,6.08
2019-03-28T13:40:26.281Z,6.55
2019-03-28T13:42:54.606Z,6.00
2019-03-28T13:45:22.776Z,6.00
2019-03-28T13:47:54.169Z,6.15
2019-03-28T13:50:21.213Z,6.60
2019-03-28T13:52:50.131Z,6.75
2019-03-28T13:55:18.740Z,6.30
2019-03-28T13:57:47.797Z,6.20
2019-03-28T14:00:19.636Z,6.53
2019-03-28T14:02:57.004Z,5.92
2019-03-28T14:05:17.801Z,6.12
2019-03-28T14:07:46.294Z,5.25
2019-03-28T14:10:14.713Z,4.60
2019-03-28T14:12:43.570Z,5.33
2019-03-28T14:15:11.702Z,4.70
2019-03-28T14:17:39.791Z,4.28
2019-03-28T14:20:08.425Z,4.90
2019-03-28T14:22:36.475Z,4.47
2019-03-28T14:25:04.672Z,5.17
2019-03-28T14:27:52.410Z,4.70
2019-03-28T14:30:21.467Z,5.45
2019-03-28T14:32:53.362Z,4.95
2019-03-28T14:35:19.430Z,4.72
2019-03-28T14:37:47.586Z,4.55
2019-03-28T14:40:15.622Z,4.58
2019-03-28T14:42:43.736Z,4.60
2019-03-28T14:45:12.226Z,4.45
2019-03-28T14:47:40.306Z,4.40
2019-03-28T14:50:09.787Z,4.55
2019-03-28T14:52:37.832Z,4.35
2019-03-28T14:55:06.281Z,5.10
2019-03-28T14:57:34.709Z,4.03
2019-03-28T15:00:04.636Z,4.12
2019-03-28T15:02:32.863Z,4.30
2019-03-28T15:05:00.982Z,4.45
2019-03-28T15:07:29.338Z,3.85
2019-03-28T15:09:57.434Z,4.90
2019-03-28T15:12:25.506Z,4.20
2019-03-28T15:14:53.567Z,4.25
2019-03-28T15:17:21.796Z,4.10
2019-03-28T15:19:49.847Z,4.20
2019-03-28T15:22:37.118Z,3.80
2019-03-28T15:25:05.400Z,4.12
2019-03-28T15:27:33.615Z,4.97
2019-03-28T15:30:02.173Z,4.25
2019-03-28T15:32:30.240Z,4.72
2019-03-28T15:34:58.363Z,3.58
2019-03-28T15:37:26.482Z,3.87
2019-03-28T15:39:54.560Z,4.10
2019-03-28T15:42:22.603Z,3.77
2019-03-28T15:44:50.657Z,4.00
2019-03-28T15:47:18.686Z,4.08
2019-03-28T15:49:46.743Z,4.25
2019-03-28T15:52:14.759Z,4.40
2019-03-28T15:54:42.801Z,3.70
2019-03-28T15:57:10.833Z,3.77
2019-03-28T15:59:38.857Z,4.08
2019-03-28T16:02:07.217Z,4.35
2019-03-28T16:04:35.266Z,3.87
2019-03-28T16:07:03.331Z,4.60
2019-03-28T16:09:31.332Z,3.90
2019-03-28T16:12:02.910Z,4.30
2019-03-28T16:14:29.932Z,3.87
2019-03-28T16:16:58.361Z,3.75
2019-03-28T16:19:26.442Z,3.22
2019-03-28T16:21:54.487Z,3.67
2019-03-28T16:24:22.544Z,3.90
2019-03-28T16:26:50.547Z,4.00
2019-03-28T16:29:18.550Z,3.62
2019-03-28T16:31:46.782Z,3.85
2019-03-28T16:34:15.075Z,3.90
2019-03-28T16:36:43.219Z,4.22
2019-03-28T16:39:11.381Z,2.77
2019-03-28T16:41:39.815Z,3.45
2019-03-28T16:44:08.591Z,3.45
2019-03-28T16:46:37.848Z,3.65
2019-03-28T16:49:05.999Z,3.60
2019-03-28T16:51:34.054Z,3.00
2019-03-28T16:54:02.244Z,3.30
2019-03-28T16:56:30.293Z,3.25
2019-03-28T16:58:58.357Z,3.40
2019-03-28T17:01:26.454Z,3.55
2019-03-28T17:03:54.488Z,3.62
2019-03-28T17:06:22.836Z,3.67
2019-03-28T17:08:52.432Z,4.08
2019-03-28T17:11:20.764Z,3.67
2019-03-28T17:13:48.784Z,3.42
2019-03-28T17:16:17.040Z,3.67
2019-03-28T17:18:45.510Z,3.55
2019-03-28T17:21:32.789Z,4.03
2019-03-28T17:24:01.186Z,3.27
2019-03-28T17:26:29.279Z,4.05
2019-03-28T17:28:57.599Z,3.77
2019-03-28T17:31:25.660Z,4.08
2019-03-28T17:33:53.805Z,3.83
2019-03-28T17:36:21.863Z,4.70
2019-03-28T17:38:49.999Z,4.45
2019-03-28T17:41:17.995Z,4.17
2019-03-28T17:43:46.071Z,4.00
2019-03-28T17:46:14.155Z,4.47
2019-03-28T17:48:42.186Z,4.00
2019-03-28T17:51:10.599Z,4.15
2019-03-28T17:53:38.697Z,4.37
2019-03-28T17:56:06.826Z,4.50
2019-03-28T17:58:34.919Z,4.45
2019-03-28T18:01:02.919Z,4.45
2019-03-28T18:03:31.787Z,5.00
2019-03-28T18:05:59.962Z,4.20
2019-03-28T18:08:28.260Z,4.72
2019-03-28T18:10:56.340Z,4.65
2019-03-28T18:13:24.361Z,4.50
2019-03-28T18:15:52.516Z,5.25
2019-03-28T18:18:20.685Z,4.90
2019-03-28T18:20:48.733Z,4.80
2019-03-28T18:23:16.791Z,4.42
2019-03-28T18:25:44.840Z,4.80
2019-03-28T18:28:12.920Z,4.83
2019-03-28T18:30:40.959Z,5.08
2019-03-28T18:33:10.246Z,5.80
2019-03-28T18:35:39.093Z,5.55
2019-03-28T18:38:07.197Z,4.78
2019-03-28T18:40:35.353Z,4.72
2019-03-28T18:43:03.574Z,4.83
2019-03-28T18:45:31.609Z,5.08
2019-03-28T18:47:59.695Z,4.58
2019-03-28T18:50:28.174Z,4.62
2019-03-28T18:52:56.235Z,4.70
2019-03-28T18:55:24.438Z,4.75
2019-03-28T18:57:52.490Z,4.67
2019-03-28T19:00:21.119Z,4.20
2019-03-28T19:02:49.383Z,4.37
2019-03-28T19:05:19.969Z,4.05
2019-03-28T19:07:48.111Z,4.47
2019-03-28T19:10:16.684Z,4.40
2019-03-28T19:12:45.832Z,4.15
2019-03-28T19:15:14.027Z,4.22
2019-03-28T19:17:42.717Z,4.70
2019-03-28T19:20:10.880Z,4.42
2019-03-28T19:22:38.992Z,5.08
2019-03-28T19:25:08.941Z,4.58
2019-03-28T19:27:37.396Z,4.50
2019-03-28T19:30:07.386Z,3.92
2019-03-28T19:32:35.486Z,3.30
2019-03-28T19:35:03.678Z,3.25
2019-03-28T19:37:32.173Z,3.20
2019-03-28T19:40:00.427Z,2.98
2019-03-28T19:42:28.442Z,3.12
2019-03-28T19:44:56.983Z,3.08
2019-03-28T19:47:28.297Z,3.02
2019-03-28T19:49:54.959Z,3.35
2019-03-28T19:52:23.043Z,3.08
2019-03-28T19:54:51.165Z,3.40
2019-03-28T19:57:19.666Z,3.30
2019-03-28T19:59:47.738Z,3.55
2019-03-28T20:02:16.158Z,3.80
2019-03-28T20:04:44.214Z,3.33
2019-03-28T20:07:21.533Z,3.60
2019-03-28T20:09:42.140Z,3.80
2019-03-28T20:12:10.243Z,3.90
2019-03-28T20:14:38.269Z,4.10
2019-03-28T20:17:06.304Z,4.10
2019-03-28T20:19:34.382Z,4.00
2019-03-28T20:22:03.914Z,3.87
2019-03-28T20:24:32.687Z,4.08
2019-03-28T20:27:00.737Z,4.12
2019-03-28T20:29:47.995Z,4.00
2019-03-28T20:32:16.038Z,3.95
2019-03-28T20:34:44.062Z,3.55
2019-03-28T20:37:12.418Z,4.33
2019-03-28T20:39:40.546Z,4.33
2019-03-28T20:42:08.975Z,4.30
2019-03-28T20:44:37.242Z,4.87
2019-03-28T20:47:11.420Z,3.72
2019-03-28T20:49:40.008Z,4.53
2019-03-28T20:52:09.606Z,4.17
2019-03-28T20:54:38.070Z,4.00
2019-03-28T20:57:06.129Z,4.67
2019-03-28T20:59:34.155Z,4.30
2019-03-28T21:02:02.209Z,4.55
2019-03-28T21:04:31.800Z,4.53
2019-03-28T21:07:00.095Z,4.22
2019-03-28T21:09:28.565Z,5.00
2019-03-28T21:11:56.996Z,4.65
2019-03-28T21:14:25.582Z,4.67
2019-03-28T21:16:57.930Z,4.55
2019-03-28T21:19:24.927Z,4.60
2019-03-28T21:21:53.235Z,5.25
2019-03-28T21:24:21.233Z,4.72
2019-03-28T21:26:49.311Z,5.10
2019-03-28T21:29:17.428Z,5.42
2019-03-28T21:31:50.178Z,5.33
2019-03-28T21:34:15.718Z,5.20
2019-03-28T21:36:44.116Z,5.47
2019-03-28T21:39:12.167Z,5.40
2019-03-28T21:41:40.602Z,5.47
2019-03-28T21:44:08.767Z,5.53
2019-03-28T21:46:36.808Z,5.55
2019-03-28T21:49:05.203Z,5.30
2019-03-28T21:51:33.372Z,6.17
2019-03-28T21:54:04.847Z,6.45
2019-03-28T21:56:32.066Z,5.97
2019-03-28T21:59:00.676Z,6.60
2019-03-28T22:01:28.723Z,6.20
2019-03-28T22:03:56.759Z,6.08
2019-03-28T22:06:43.725Z,5.95
2019-03-28T22:09:11.772Z,6.08
2019-03-28T22:11:39.782Z,7.00
2019-03-28T22:14:07.821Z,6.50
2019-03-28T22:16:35.857Z,6.90
2019-03-28T22:19:05.300Z,6.87
2019-03-28T22:21:33.584Z,6.50
2019-03-28T22:24:01.586Z,5.87
2019-03-28T22:26:29.623Z,6.60
2019-03-28T22:28:57.641Z,6.47
2019-03-28T22:31:25.984Z,6.55
2019-03-28T22:33:54.508Z,6.65
2019-03-28T22:36:22.511Z,6.87
2019-03-28T22:38:50.583Z,6.42
2019-03-28T22:41:18.694Z,6.90
2019-03-28T22:43:46.724Z,6.83
2019-03-28T22:46:14.734Z,6.60
2019-03-28T22:48:44.492Z,7.20
2019-03-28T22:51:12.667Z,6.95
2019-03-28T22:53:40.645Z,6.67
2019-03-28T22:56:08.667Z,6.75
2019-03-28T22:58:36.839Z,6.70
2019-03-28T23:01:04.947Z,7.03
2019-03-28T23:03:32.989Z,6.65
2019-03-28T23:06:01.310Z,7.35
2019-03-28T23:08:29.341Z,7.72
2019-03-28T23:10:57.328Z,7.03
2019-03-28T23:13:25.375Z,7.05
2019-03-28T23:15:53.448Z,7.05
2019-03-28T23:18:21.486Z,7.05
2019-03-28T23:20:50.103Z,7.67
2019-03-28T23:23:18.335Z,7.10
2019-03-28T23:25:46.316Z,7.37
2019-03-28T23:28:14.373Z,7.15
2019-03-28T23:30:42.422Z,8.68
2019-03-28T23:33:10.465Z,7.85
2019-03-28T23:35:38.762Z,7.50
2019-03-28T23:38:07.249Z,7.50
2019-03-28T23:40:35.669Z,7.42
2019-03-28T23:43:03.951Z,7.30
2019-03-28T23:45:32.251Z,8.43
2019-03-28T23:48:00.250Z,7.55
2019-03-28T23:50:28.259Z,7.20
2019-03-28T23:52:56.508Z,7.80
2019-03-28T23:55:24.535Z,7.97
2019-03-28T23:57:52.530Z,7.97
